createdAt,value
2022-11-23T00:10:21.204Z,6.9
2022-11-23T00:22:21.300Z,6.8
2022-11-23T00:34:21.208Z,6.9
2022-11-23T00:46:21.519Z,6.9
2022-11-23T00:58:21.318Z,6.9
2022-11-23T01:10:21.289Z,6.9
2022-11-23T01:22:21.244Z,6.9
2022-11-23T01:34:21.195Z,6.9
2022-11-23T01:46:21.619Z,6.9
2022-11-23T01:58:21.297Z,6.9
2022-11-23T02:10:21.246Z,6.9
2022-11-23T02:22:21.310Z,6.8
2022-11-23T02:34:21.281Z,6.7
2022-11-23T02:46:21.521Z,6.7
2022-11-23T02:58:21.249Z,6.7
2022-11-23T03:10:21.272Z,6.7
2022-11-23T03:22:21.288Z,6.7
2022-11-23T03:34:21.201Z,6.6
2022-11-23T03:46:21.705Z,6.6
2022-11-23T03:58:21.301Z,6.6
2022-11-23T04:10:21.283Z,6.7
2022-11-23T04:22:21.237Z,6.6
2022-11-23T04:34:21.196Z,6.7
2022-11-23T04:46:21.746Z,6.6
2022-11-23T04:58:21.278Z,6.6
2022-11-23T05:10:21.293Z,6.5
2022-11-23T05:22:21.285Z,6.4
2022-11-23T05:34:21.192Z,6.4
2022-11-23T05:46:21.281Z,6.4
2022-11-23T05:58:21.305Z,6.4
2022-11-23T06:10:21.279Z,6.3
2022-11-23T06:22:21.190Z,6.2
2022-11-23T06:34:21.485Z,6.2
2022-11-23T06:46:21.244Z,6.1
2022-11-23T06:58:21.290Z,6.1
2022-11-23T07:10:21.303Z,6.0
2022-11-23T07:22:21.198Z,6.1
2022-11-23T07:34:21.257Z,6.2
2022-11-23T07:46:21.198Z,6.3
2022-11-23T07:58:21.194Z,6.3
2022-11-23T08:10:21.191Z,6.3
2022-11-23T08:22:21.237Z,6.3
2022-11-23T08:34:21.191Z,6.4
2022-11-23T08:46:21.260Z,6.5
2022-11-23T08:58:21.292Z,6.5
2022-11-23T09:10:21.306Z,6.6
2022-11-23T09:22:21.208Z,6.9
2022-11-23T09:34:21.191Z,6.8
2022-11-23T09:46:21.310Z,6.8
2022-11-23T09:58:21.283Z,6.9
2022-11-23T10:10:21.197Z,7.1
2022-11-23T10:22:21.289Z,7.0
2022-11-23T10:34:21.200Z,7.2
2022-11-23T10:46:21.690Z,7.3
2022-11-23T10:58:21.309Z,7.2
2022-11-23T11:10:21.311Z,7.7
2022-11-23T11:22:21.320Z,8.1
2022-11-23T11:34:21.205Z,7.8
2022-11-23T11:46:29.758Z,8.0
2022-11-23T11:58:21.303Z,8.5
2022-11-23T12:10:21.193Z,8.3
2022-11-23T12:22:21.206Z,8.4
2022-11-23T12:34:21.201Z,8.1
2022-11-23T12:46:21.292Z,7.9
2022-11-23T12:58:21.190Z,8.0
2022-11-23T13:10:21.287Z,8.4
2022-11-23T13:22:21.273Z,8.2
2022-11-23T13:34:21.208Z,8.1
2022-11-23T13:46:21.406Z,8.3
2022-11-23T13:58:21.279Z,8.5
2022-11-23T14:10:21.307Z,8.0
2022-11-23T14:22:21.192Z,7.5
2022-11-23T14:34:21.254Z,7.3
2022-11-23T14:46:21.387Z,7.1
2022-11-23T14:58:21.304Z,7.1
2022-11-23T15:10:21.192Z,7.1
2022-11-23T15:22:21.241Z,7.3
2022-11-23T15:34:21.283Z,7.3
2022-11-23T15:46:21.286Z,7.3
2022-11-23T15:58:21.195Z,7.3
2022-11-23T16:10:21.194Z,7.4
2022-11-23T16:22:21.196Z,7.3
2022-11-23T16:34:21.198Z,7.0
2022-11-23T16:46:21.277Z,6.5
2022-11-23T16:58:21.249Z,6.2
2022-11-23T17:10:21.209Z,6.1
2022-11-23T17:22:21.198Z,5.9
2022-11-23T17:34:21.305Z,5.8
2022-11-23T17:46:21.337Z,5.7
2022-11-23T17:58:21.304Z,5.6
2022-11-23T18:10:21.310Z,5.6
2022-11-23T18:22:21.298Z,5.5
2022-11-23T18:34:21.200Z,5.4
2022-11-23T18:46:21.327Z,5.3
2022-11-23T18:58:21.291Z,5.3
2022-11-23T19:10:21.189Z,5.3
2022-11-23T19:22:21.315Z,5.2
2022-11-23T19:34:21.310Z,5.0
2022-11-23T19:46:21.397Z,4.9
2022-11-23T19:58:21.245Z,4.9
2022-11-23T20:10:21.611Z,4.9
2022-11-23T20:22:21.306Z,4.8
2022-11-23T20:34:23.022Z,4.7
2022-11-23T20:46:45.755Z,4.7
2022-11-23T20:58:21.194Z,4.6
2022-11-23T21:10:21.319Z,4.7
2022-11-23T21:22:21.223Z,4.7
2022-11-23T21:34:21.200Z,4.7
2022-11-23T21:46:21.342Z,4.8
2022-11-23T21:58:21.263Z,4.9
2022-11-23T22:10:21.283Z,4.9
2022-11-23T22:22:21.252Z,5.1
2022-11-23T22:34:21.298Z,5.2
2022-11-23T22:46:21.241Z,5.5
2022-11-23T22:58:21.290Z,5.6
2022-11-23T23:10:21.248Z,5.7
2022-11-23T23:22:21.241Z,5.7
2022-11-23T23:34:21.210Z,5.9
2022-11-23T23:46:21.246Z,5.9
2022-11-23T23:58:21.304Z,5.9
